• Join FlightAware (Why Join?)
  • Login
  • US Flag 
02:02AM EDT


 

Airport Tracker/Info


-or-


 

Live Flight TrackerFlight Track Log ✈ N9HM ✈ 03-Feb-2014 ✈ MUVT / VTU - KSBP

Flight Track Log - Related Links

Times and Time Zones

All times are in EST time to prevent confusion due to time zone crossing. See the N9HM flight status page for this flight to view local times or setup timezone preferences in your user account.

Time Position Orientation Groundspeed Altitude Reporting Facility
EST Latitude Longitude Course Direction KTS MPH feet Rate Location/Type
04:59PM 34.2664 -119.1503 319° Northwest 103 119 3,200  Level Los Angeles Center
05:01PM 34.2908 -119.1764 319° Northwest 112 129 4,400 840 Climbing Los Angeles Center
05:01PM 34.3022 -119.2039 297° West 94 108 5,100 720 Climbing Los Angeles Center
05:02PM 34.3039 -119.2047 338° Northwest 97 112 5,200 720 Climbing Los Angeles Center
05:02PM 34.3114 -119.2261 293° West 99 114 5,600 660 Climbing Los Angeles Center
05:03PM 34.3164 -119.2350 304° West 99 114 5,900 780 Climbing Los Angeles Center
05:03PM 34.3267 -119.2550 302° West 103 119 6,400 540 Climbing Los Angeles Center
05:04PM 34.3297 -119.2664 288° West 102 117 6,500 180 Climbing Los Angeles Center
05:04PM 34.3422 -119.2944 298° West 123 142 6,600 60 Climbing Los Angeles Center
05:05PM 34.3506 -119.3131 298° West 119 137 6,600 -120 Level Los Angeles Center
05:05PM 34.3556 -119.3342 286° West 132 152 6,500 -120 Descending Los Angeles Center
05:06PM 34.3625 -119.3547 292° West 128 147 6,500  Level Los Angeles Center
05:06PM 34.3689 -119.3742 292° West 127 146 6,500  Level Los Angeles Center
05:07PM 34.3739 -119.3942 287° West 127 146 6,500 180 Level Los Angeles Center
05:07PM 34.3817 -119.4117 298° West 127 146 6,700 60 Climbing Los Angeles Center
05:08PM 34.3889 -119.4333 292° West 128 147 6,600 -240 Descending Los Angeles Center
05:08PM 34.3997 -119.4528 304° West 129 148 6,500 -120 Descending Los Angeles Center
05:09PM 34.4067 -119.4708 295° West 128 147 6,500 60 Level Los Angeles Center
05:09PM 34.4164 -119.4892 303° West 126 145 6,600 240 Climbing Los Angeles Center
05:10PM 34.4256 -119.5053 305° West 126 145 6,800 240 Climbing Los Angeles Center
05:10PM 34.4339 -119.5278 294° West 125 144 6,900 60 Climbing Los Angeles Center
05:11PM 34.4453 -119.5508 301° West 126 145 6,900 -240 Level Los Angeles Center
05:11PM 34.4492 -119.5672 286° West 128 147 6,700 -420 Descending Los Angeles Center
05:12PM 34.4586 -119.5897 297° West 126 145 6,500 -240 Descending Los Angeles Center
05:12PM 34.4619 -119.6047 285° West 125 144 6,500 60 Level Los Angeles Center
05:13PM 34.4706 -119.6283 294° West 124 143 6,600  Climbing Los Angeles Center
05:13PM 34.4817 -119.6453 309° West 119 137 6,500 -120 Descending Los Angeles Center
05:14PM 34.4869 -119.6633 290° West 122 140 6,500  Level Los Angeles Center
05:14PM 34.4969 -119.6742 318° Northwest 119 137 6,500 60 Level Los Angeles Center
05:15PM 34.5058 -119.6964 296° West 120 138 6,600 180 Climbing Los Angeles Center
05:15PM 34.5156 -119.7100 311° West 122 140 6,700 -120 Climbing Los Angeles Center
05:16PM 34.5297 -119.7394 300° West 124 143 6,500 -240 Descending Los Angeles Center
05:16PM 34.5344 -119.7456 313° West 128 147 6,500  Level Los Angeles Center
05:17PM 34.5514 -119.7736 306° West 128 147 6,500  Level Los Angeles Center
05:17PM 34.5583 -119.7847 307° West 127 146 6,500 -120 Level Los Angeles Center
05:18PM 34.5711 -119.8081 304° West 126 145 6,400 -120 Descending Los Angeles Center
05:18PM 34.5794 -119.8222 306° West 124 143 6,400 -120 Level Los Angeles Center
05:19PM 34.5917 -119.8422 307° West 125 144 6,300 -300 Descending Los Angeles Center
05:20PM 34.6008 -119.8597 302° West 124 143 6,100 -300 Descending Los Angeles Center
05:20PM 34.6111 -119.8767 306° West 126 145 6,000 -300 Descending Los Angeles Center
05:20PM 34.6178 -119.8883 305° West 124 143 5,900 -540 Descending Los Angeles Center
05:21PM 34.6322 -119.9161 302° West 118 136 5,500 -480 Descending Los Angeles Center
05:21PM 34.6331 -119.9172 312° West 118 136 5,500 -300 Level Los Angeles Center
05:22PM 34.6558 -119.9519 309° West 114 131 5,200 -240 Descending Los Angeles Center
05:23PM 34.6772 -119.9814 311° West 116 133 5,000 -180 Descending Los Angeles Center
05:24PM 34.6936 -120.0053 310° West 114 131 4,900 -120 Descending Los Angeles Center
05:24PM 34.6969 -120.0117 302° West 116 133 4,900 -360 Level Los Angeles Center
05:25PM 34.7186 -120.0414 312° West 113 130 4,500 -300 Descending Los Angeles Center
05:26PM 34.7372 -120.0667 312° West 110 127 4,400 -120 Descending Los Angeles Center
05:26PM 34.7342 -120.0622 130° Southeast 111 128 4,400  Level Los Angeles Center
05:27PM 34.7567 -120.0917 313° West 102 117 4,400  Level Los Angeles Center
05:29PM 34.7742 -120.1178 309° West 96 110 4,400 -60 Level Los Angeles Center
05:30PM 34.7911 -120.1461 306° West 100 115 4,300 -120 Descending Los Angeles Center
05:30PM 34.7886 -120.1406 119° Southeast 99 114 4,300  Level Los Angeles Center
05:31PM 34.8086 -120.1667 313° West 95 109 4,300  Level Los Angeles Center
05:31PM 34.8097 -120.1681 314° West 94 108 4,300 60 Level Los Angeles Center
05:31PM 34.8247 -120.1906 309° West 94 108 4,400 60 Climbing Los Angeles Center
05:32PM 34.8275 -120.1917 342° North 94 108 4,400 60 Level Los Angeles Center
05:33PM 34.8464 -120.2181 311° West 100 115 4,500  Climbing Los Angeles Center
05:33PM 34.8647 -120.2456 309° West 110 127 4,500 60 Level Los Angeles Center
05:34PM 34.8672 -120.2458 355° North 108 124 4,600  Climbing Los Angeles Center
05:34PM 34.8872 -120.2700 315° West 111 128 4,500  Descending Los Angeles Center
05:35PM 34.8894 -120.2728 314° West 111 128 4,600 -120 Climbing Los Angeles Center
05:35PM 34.9086 -120.2997 311° West 111 128 4,400 -120 Descending Los Angeles Center
05:36PM 34.9153 -120.3044 330° Northwest 111 128 4,500  Climbing Los Angeles Center
05:36PM 34.9292 -120.3244 310° West 110 127 4,400  Descending Los Angeles Center
05:37PM 34.9367 -120.3311 324° Northwest 110 127 4,500 -240 Climbing Los Angeles Center
05:37PM 34.9522 -120.3514 313° West 112 129 4,200 -240 Descending Los Angeles Center
05:38PM 34.9597 -120.3569 329° Northwest 112 129 4,300 -300 Climbing Los Angeles Center
05:39PM 34.9800 -120.3792 318° Northwest 110 127 3,900 -300 Descending Los Angeles Center
05:39PM 34.9819 -120.3817 314° West 110 127 4,000 -360 Climbing Los Angeles Center
05:40PM 35.0056 -120.4078 318° Northwest 110 127 3,500 -420 Descending Los Angeles Center
05:40PM 35.0061 -120.4047 77° East 110 127 3,600 -240 Climbing Los Angeles Center
05:41PM 35.0289 -120.4264 322° Northwest 107 123 3,300 -240 Descending Los Angeles Center
05:41PM 35.0308 -120.4264 360° North 110 127 3,400 -360 Climbing Los Angeles Center
05:42PM 35.0497 -120.4433 324° Northwest 105 121 3,000 -420 Descending Los Angeles Center
05:42PM 35.0586 -120.4500 328° Northwest 104 120 3,000 -240 Level Los Angeles Center
05:43PM 35.0758 -120.4639 327° Northwest 105 121 2,800 -240 Descending Los Angeles Center
05:43PM 35.0833 -120.4697 328° Northwest 105 121 2,800 -420 Level Los Angeles Center
05:44PM 35.1022 -120.4869 323° Northwest 103 119 2,400 -540 Descending Los Angeles Center
05:44PM 35.1072 -120.4892 340° North 104 120 2,300 -420 Descending Los Angeles Center
05:45PM 35.1253 -120.5033 327° Northwest 100 115 2,000 -300 Descending Los Angeles Center
05:45PM 35.1311 -120.5064 337° Northwest 103 119 2,000 -300 Level Los Angeles Center
05:46PM 35.1528 -120.5208 331° Northwest 101 116 1,700 -240 Descending Los Angeles Center
05:46PM 35.1558 -120.5222 340° North 101 116 1,800 -300 Climbing Los Angeles Center
05:47PM 35.1717 -120.5386 320° Northwest 96 110 1,400 -240 Descending Los Angeles Center
05:47PM 35.1822 -120.5425 343° North 100 115 1,600 -300 Climbing Los Angeles Center
05:48PM 35.1914 -120.5611 301° West 81 93 1,100 -300 Descending Los Angeles Center
05:49PM 35.2058 -120.5881 303° West 85 98 1,100 -120 Level Los Angeles Center
05:50PM 35.2161 -120.6058 305° West 71 82 900 -240 Descending Los Angeles Center
05:52PM 35.2333 -120.6333 313° West  Level FlightAware Approximate
05:59PM 35.2373 -120.6426 313° West  Level Estimated
06:00PM 35.2373 -120.6426 313° West  Level Estimated